Latest Weather Observations for Hamilton

IDV60801

Issued at 6:02 am EDT Sunday 1 February 2015 (issued every 30 minutes, with the page automatically refreshed every 10 minutes)

About weather observations | Map of weather stations | Latest weather observations for VIC | Other Formats
Station Details ID: 090173 Name: HAMILTON AIRPORT Lat: -37.65 Lon: 142.06 Height: 241.1 m
Data from the previous 72 hours. | See also: Recent months at Hamilton
Date/Time
EDT
Temp
°C
App
Temp
°C
Dew
Point
Rel
Hum
%
Delta-T
°C
Wind Press
QNH
hPa
Press
MSL
hPa
Rain
since 9 am
mm
Dir
 
Spd
km/h
Gust
km/h
Spd
kts
Gust
kts
01/06:00am 11.7 7.5 8.4 80 1.6 S 20 28 11 15 1014.7 1014.1 0.0
01/05:30am 12.0 7.0 7.9 76 2.0 S 24 32 13 17 1014.5 1013.9 0.0
01/05:00am 12.0 7.3 7.9 76 2.0 S 22 32 12 17 1014.6 1014.0 0.0
01/04:30am 12.2 7.4 7.5 73 2.3 S 22 30 12 16 1014.6 1014.0 0.0
01/04:00am 12.3 7.6 7.6 73 2.3 S 22 32 12 17 1014.7 1014.1 0.0
01/03:30am 12.3 7.1 7.4 72 2.4 S 24 33 13 18 1015.0 1014.4 0.0
01/03:00am 12.4 7.7 7.7 73 2.3 S 22 28 12 15 1015.1 1014.5 0.0
01/02:30am 12.5 7.6 7.0 69 2.7 S 22 30 12 16 1015.3 1014.6 0.0
01/02:00am 12.5 7.7 7.2 70 2.6 S 22 30 12 16 1015.6 1014.9 0.0
01/01:30am 12.6 7.8 7.5 71 2.5 S 22 32 12 17 1015.8 1015.1 0.0
01/01:00am 12.5 8.3 7.4 71 2.5 S 19 22 10 12 1015.9 1015.2 0.0
01/12:30am 12.6 8.3 7.7 72 2.4 S 20 28 11 15 1015.9 1015.2 0.0
01/12:00am 12.7 8.7 6.7 67 2.9 S 17 24 9 13 1016.0 1015.3 0.0
 
Date/Time
EDT
Temp
°C
App
Temp
°C
Dew
Point
Rel
Hum
%
Delta-T
°C
Wind Press
QNH
hPa
Press
MSL
hPa
Rain
since 9 am
mm
Dir
 
Spd
km/h
Gust
km/h
Spd
kts
Gust
kts
31/11:30pm 12.7 7.8 6.7 67 2.9 SSE 22 32 12 17 1016.1 1015.4 0.0
31/11:00pm 12.9 8.4 6.9 67 2.9 S 20 26 11 14 1016.3 1015.6 0.0
31/10:30pm 13.1 8.5 6.7 65 3.1 SSE 20 30 11 16 1016.3 1015.6 0.0
31/10:00pm 13.2 8.0 7.2 67 2.9 S 24 32 13 17 1016.2 1015.5 0.0
31/09:30pm 13.3 8.1 7.3 67 3.0 S 24 30 13 16 1016.1 1015.4 0.0
31/09:00pm 13.4 8.6 8.7 73 2.4 S 24 32 13 17 1015.9 1015.2 0.0
31/08:30pm 13.6 8.4 8.7 72 2.5 S 26 33 14 18 1015.7 1015.0 0.0
31/08:00pm 14.2 9.5 9.2 72 2.6 S 24 32 13 17 1015.5 1014.8 0.0
31/07:30pm 13.9 8.7 8.9 72 2.6 S 26 35 14 19 1015.4 1014.7 0.0
31/07:00pm 14.3 8.0 8.9 70 2.8 S 32 41 17 22 1015.0 1014.4 0.0
31/06:30pm 14.8 9.8 9.4 70 2.8 S 26 33 14 18 1014.8 1014.2 0.0
31/06:00pm 15.0 9.9 9.1 68 3.1 S 26 35 14 19 1014.8 1014.2 0.0
31/05:30pm 14.9 8.6 9.1 68 3.0 S 32 39 17 21 1015.0 1014.4 0.0
31/05:00pm 16.1 10.6 9.1 63 3.6 S 28 39 15 21 1014.9 1014.3 0.0
31/04:30pm 15.4 8.4 8.6 64 3.5 SSW 35 50 19 27 1015.0 1014.4 0.0
31/04:22pm 15.9 9.7 9.3 65 3.4 SSW 32 50 17 27 1015.0 1014.4 0.0
31/04:00pm 16.5 9.4 9.7 64 3.6 SSW 37 46 20 25 1014.9 1014.3 0.0
31/03:30pm 16.3 10.1 9.3 63 3.7 S 32 39 17 21 1014.9 1014.3 0.0
31/03:00pm 16.6 10.3 8.8 60 4.1 S 32 44 17 24 1015.1 1014.5 0.0
31/02:30pm 17.1 10.9 8.0 55 4.7 SSW 30 39 16 21 1014.8 1014.2 0.0
31/02:00pm 17.2 11.3 7.3 52 5.0 S 28 39 15 21 1015.0 1014.4 0.0
31/01:30pm 17.3 12.4 8.4 56 4.6 S 24 33 13 18 1015.4 1014.7 0.0
31/01:00pm 16.4 11.1 8.4 59 4.1 S 26 35 14 19 1015.6 1014.9 0.0
31/12:30pm 16.0 10.4 8.7 62 3.8 S 28 37 15 20 1015.6 1014.9 0.0
31/12:00pm 15.7 9.5 9.4 66 3.3 S 32 41 17 22 1015.8 1015.1 0.0
31/11:30am 16.1 10.2 7.6 57 4.3 S 28 39 15 21 1015.5 1014.8 0.0
31/11:00am 15.8 10.4 8.1 60 3.9 SSE 26 33 14 18 1015.6 1014.9 0.0
31/10:30am 14.9 9.1 7.9 63 3.5 SSE 28 37 15 20 1015.5 1014.8 0.0
31/10:00am 15.6 9.6 7.1 57 4.2 SSE 28 39 15 21 1015.1 1014.5 0.0
31/09:30am 14.0 9.1 8.4 69 2.8 SSE 24 39 13 21 1015.1 1014.5 0.0
31/09:00am 14.0 9.9 8.8 71 2.7 SSE 20 30 11 16 1014.8 1014.2 0.0
31/08:30am 13.8 9.1 9.3 74 2.3 S 24 33 13 18 1014.5 1013.9 0.0
31/08:00am 13.5 9.6 9.6 77 2.0 SSE 20 28 11 15 1014.2 1013.5 0.0
31/07:30am 13.0 8.4 9.6 80 1.8 SSE 24 33 13 18 1014.1 1013.4 0.0
31/07:00am 12.9 7.9 9.7 81 1.7 SSE 26 37 14 20 1014.0 1013.3 0.0
31/06:30am 12.6 8.1 10.0 84 1.4 S 24 30 13 16 1014.1 1013.4 0.0
31/06:00am 12.5 7.6 10.0 85 1.3 S 26 35 14 19 1014.2 1013.5 0.0
31/05:30am 12.7 8.5 9.9 83 1.5 S 22 30 12 16 1014.2 1013.5 0.0
31/05:00am 12.1 8.4 10.3 89 0.9 S 20 26 11 14 1014.2 1013.5 0.0
31/04:30am 13.0 8.8 9.8 81 1.7 S 22 30 12 16 1014.2 1013.5 0.0
31/04:00am 13.2 9.3 9.3 77 2.0 S 20 28 11 15 1014.0 1013.3 0.0
31/03:30am 13.1 8.5 9.5 79 1.9 S 24 30 13 16 1013.8 1013.1 0.0
31/03:00am 12.9 8.7 9.7 81 1.7 SSE 22 28 12 15 1014.2 1013.5 0.0
31/02:30am 13.1 8.4 9.4 78 1.9 SSE 24 33 13 18 1014.4 1013.8 0.0
31/02:00am 13.0 9.1 9.3 78 1.9 S 20 28 11 15 1014.6 1014.0 0.0
31/01:30am 12.6 8.7 9.4 81 1.6 S 20 26 11 14 1014.9 1014.3 0.0
31/01:00am 12.3 8.0 9.3 82 1.5 SSE 22 28 12 15 1014.9 1014.3 0.0
31/12:30am 12.6 7.5 9.2 80 1.7 SSE 26 37 14 20 1015.1 1014.5 0.0
31/12:00am 13.2 9.6 10.0 81 1.7 S 19 30 10 16 1015.5 1014.8 0.0
 
Date/Time
EDT
Temp
°C
App
Temp
°C
Dew
Point
Rel
Hum
%
Delta-T
°C
Wind Press
QNH
hPa
Press
MSL
hPa
Rain
since 9 am
mm
Dir
 
Spd
km/h
Gust
km/h
Spd
kts
Gust
kts
30/11:30pm 12.8 9.1 10.2 84 1.4 SSE 20 30 11 16 1015.8 1015.1 0.0
30/11:00pm 12.3 9.4 9.7 84 1.3 S 15 20 8 11 1016.0 1015.3 0.0
30/10:30pm 12.0 8.6 9.2 83 1.4 SSE 17 20 9 11 1016.1 1015.4 0.0
30/10:00pm 12.4 8.9 8.9 79 1.8 SSE 17 22 9 12 1016.0 1015.3 0.0
30/09:30pm 13.0 8.1 8.5 74 2.3 SSE 24 32 13 17 1015.8 1015.1 0.0
30/09:00pm 13.5 8.5 8.1 70 2.7 S 24 32 13 17 1015.7 1015.0 0.0
30/08:30pm 14.3 9.2 7.8 65 3.3 SSE 24 33 13 18 1015.5 1014.8 0.0
30/08:00pm 15.3 9.4 7.6 60 3.9 SSE 28 35 15 19 1015.3 1014.6 0.0
30/07:30pm 16.5 10.0 6.6 52 4.9 S 30 37 16 20 1015.0 1014.4 0.0
30/07:00pm 17.7 11.4 7.4 51 5.2 S 30 37 16 20 1014.7 1014.1 0.0
30/06:30pm 18.9 12.5 7.0 46 6.1 SSW 30 39 16 21 1014.7 1014.1 0.0
30/06:00pm 18.6 11.8 6.8 46 6.0 S 32 39 17 21 1014.9 1014.3 0.0
30/05:30pm 20.2 14.4 7.9 45 6.4 SSW 28 37 15 20 1015.0 1014.4 0.0
30/05:00pm 20.6 15.2 6.5 40 7.2 S 24 35 13 19 1015.1 1014.5 0.0
30/04:30pm 20.9 14.9 8.5 45 6.6 S 30 41 16 22 1015.0 1014.4 0.0
30/04:00pm 19.2 13.3 7.3 46 6.1 S 28 46 15 25 1015.4 1014.7 0.0
30/03:59pm 19.5 13.6 7.6 46 6.2 S 28 46 15 25 1015.4 1014.7 0.0
30/03:30pm 20.9 15.6 6.8 40 7.2 SSE 24 35 13 19 1015.3 1014.6 0.0
30/03:00pm 20.0 14.7 6.7 42 6.8 SSE 24 37 13 20 1015.8 1015.1 0.0
30/02:30pm 21.8 17.0 5.7 35 8.2 SSE 20 32 11 17 1016.1 1015.4 0.0
30/02:00pm 20.0 15.5 7.1 43 6.6 S 20 32 11 17 1016.6 1015.9 0.0
30/01:30pm 19.8 14.6 7.2 44 6.5 SSW 24 32 13 17 1017.0 1016.3 0.0
30/01:00pm 19.0 14.2 7.4 47 6.0 SSE 22 33 12 18 1017.3 1016.6 0.0
30/12:30pm 19.2 14.0 7.3 46 6.1 S 24 35 13 19 1017.6 1016.9 0.0
30/12:00pm 18.0 13.6 6.5 47 5.8 SSE 19 24 10 13 1017.9 1017.3 0.0
30/11:30am 19.4 15.3 7.8 47 6.0 SE 19 30 10 16 1018.0 1017.4 0.0
30/11:00am 17.4 13.1 6.9 50 5.3 SE 19 28 10 15 1018.3 1017.7 0.0
30/10:30am 17.5 13.4 7.8 53 5.0 SSE 19 28 10 15 1018.4 1017.8 0.0
30/10:00am 16.6 12.4 8.3 58 4.3 SSE 20 32 11 17 1018.6 1018.0 0.0
30/09:30am 15.0 10.1 8.3 64 3.4 SSE 24 33 13 18 1018.8 1018.2 0.0
30/09:00am 14.8 10.9 9.4 70 2.8 SSE 20 24 11 13 1018.6 1018.0 0.0
30/08:30am 13.5 10.2 9.7 78 2.0 SE 17 22 9 12 1018.5 1017.9 0.0
30/08:00am 12.0 9.4 9.4 84 1.3 SE 13 17 7 9 1018.4 1017.8 0.0
30/07:30am 10.3 7.9 8.7 90 0.8 SE 11 13 6 7 1018.3 1017.7 0.0
30/07:00am 8.5 6.2 7.3 92 0.6 SE 9 13 5 7 1018.0 1017.4 0.0
30/06:30am 9.2 7.0 7.8 91 0.7 SE 9 15 5 8 1017.8 1017.1 0.0
30/06:00am 9.5 6.6 8.1 91 0.7 SE 13 15 7 8 1017.6 1016.9 0.0
30/05:30am 9.2 5.5 7.8 91 0.7 SE 17 20 9 11 1017.6 1016.9 0.0
30/05:00am 9.5 6.3 8.4 93 0.5 SE 15 20 8 11 1017.6 1016.9 0.0
30/04:30am 8.4 5.3 7.2 92 0.6 SE 13 17 7 9 1017.5 1016.8 0.0
30/04:00am 9.2 5.9 8.0 92 0.6 SE 15 19 8 10 1017.6 1016.9 0.0
30/03:30am 9.3 5.9 7.7 90 0.8 SE 15 19 8 10 1017.8 1017.1 0.0
30/03:00am 8.4 5.5 6.7 89 0.8 SE 11 13 6 7 1018.0 1017.4 0.0
30/02:30am 8.8 5.6 6.8 87 0.9 SE 13 19 7 10 1018.3 1017.7 0.0
30/02:00am 8.5 5.2 6.5 87 0.9 SE 13 15 7 8 1018.5 1017.9 0.0
30/01:30am 8.7 5.4 6.5 86 1.0 SE 13 15 7 8 1018.8 1018.2 0.0
30/01:00am 9.5 5.9 6.8 83 1.3 SE 15 19 8 10 1019.0 1018.4 0.0
30/12:30am 10.3 6.4 7.2 81 1.5 SE 17 19 9 10 1019.1 1018.5 0.0
30/12:00am 10.7 6.8 7.2 79 1.7 SE 17 20 9 11 1019.2 1018.6 0.0
 
Date/Time
EDT
Temp
°C
App
Temp
°C
Dew
Point
Rel
Hum
%
Delta-T
°C
Wind Press
QNH
hPa
Press
MSL
hPa
Rain
since 9 am
mm
Dir
 
Spd
km/h
Gust
km/h
Spd
kts
Gust
kts
29/11:30pm 11.4 7.0 7.3 76 2.0 SE 20 24 11 13 1019.3 1018.7 0.0
29/11:00pm 12.0 7.2 7.3 73 2.3 SE 22 28 12 15 1019.7 1019.0 0.0
29/10:30pm 12.6 7.4 7.3 70 2.6 SSE 24 32 13 17 1019.6 1018.9 0.0
29/10:00pm 13.2 7.7 7.4 68 2.9 SSE 26 33 14 18 1019.3 1018.7 0.0
29/09:30pm 13.7 8.1 7.2 65 3.2 SSE 26 37 14 20 1019.1 1018.5 0.0
29/09:00pm 14.7 8.3 6.8 59 3.9 SSE 30 39 16 21 1018.8 1018.2 0.0
29/08:30pm 15.9 9.7 6.3 53 4.7 SSE 28 41 15 22 1018.5 1017.9 0.0
29/08:00pm 17.2 9.7 6.4 49 5.4 SSE 35 50 19 27 1018.3 1017.7 0.0
29/07:30pm 18.4 11.4 5.9 44 6.2 SSE 32 43 17 23 1018.2 1017.6 0.0
29/07:00pm 19.2 11.0 4.9 39 7.0 SSE 37 44 20 24 1018.0 1017.4 0.0
29/06:30pm 20.3 12.9 5.1 37 7.5 SSE 33 48 18 26 1018.0 1017.4 0.0
29/06:00pm 21.0 13.7 5.4 36 7.8 SE 33 48 18 26 1017.9 1017.3 0.0
29/05:49pm 21.2 13.5 5.5 36 7.9 SSE 35 56 19 30 1017.8 1017.1 0.0
29/05:30pm 21.4 13.9 6.1 37 7.8 SSE 35 48 19 26 1018.0 1017.4 0.0
29/05:14pm 22.4 15.3 6.2 35 8.3 SSE 33 52 18 28 1018.1 1017.5 0.0
29/05:00pm 21.7 13.8 6.0 36 8.0 SSE 37 50 20 27 1018.2 1017.6 0.0
29/04:30pm 22.6 16.0 7.6 38 7.9 SSE 32 54 17 29 1018.4 1017.8 0.0
29/04:15pm 21.4 14.4 6.9 39 7.5 SSE 33 50 18 27 1018.5 1017.9 0.0
29/04:00pm 22.1 15.2 7.1 38 7.8 SE 33 44 18 24 1018.7 1018.1 0.0
29/03:30pm 23.1 16.8 7.2 36 8.3 SE 30 43 16 23 1018.9 1018.3 0.0
29/03:00pm 22.6 16.0 6.0 34 8.5 SE 30 52 16 28 1019.3 1018.7 0.0
29/02:57pm 22.9 16.7 6.2 34 8.6 SE 28 52 15 28 1019.2 1018.6 0.0
29/02:30pm 21.8 15.5 5.7 35 8.2 SE 28 39 15 21 1019.7 1019.0 0.0
29/02:00pm 23.4 17.5 7.5 36 8.4 SE 28 43 15 23 1019.9 1019.2 0.0
29/01:47pm 22.2 16.1 6.4 36 8.1 SE 28 46 15 25 1020.0 1019.3 0.0
29/01:30pm 21.7 15.7 7.2 39 7.5 SE 28 39 15 21 1020.3 1019.6 0.0
29/01:22pm 20.9 14.2 5.7 37 7.7 ESE 30 48 16 26 1020.4 1019.7 0.0
29/01:00pm 21.6 15.2 7.1 39 7.5 ESE 30 39 16 21 1020.6 1019.9 0.0
29/12:30pm 20.2 13.4 6.9 42 6.8 SE 32 44 17 24 1020.9 1020.2 0.0
29/12:00pm 20.4 13.7 7.4 43 6.7 SE 32 41 17 22 1021.0 1020.3 0.0
29/11:30am 18.6 12.0 7.7 49 5.6 ESE 32 43 17 23 1021.3 1020.6 0.0
29/11:00am 18.2 12.3 7.3 49 5.5 SE 28 41 15 22 1021.4 1020.7 0.0
29/10:30am 17.7 11.4 7.4 51 5.2 ESE 30 43 16 23 1021.5 1020.9 0.0
29/10:00am 16.7 10.6 8.1 57 4.4 ESE 30 39 16 21 1021.6 1021.0 0.0
29/09:30am 16.2 10.6 8.9 62 3.8 ESE 28 35 15 19 1021.6 1021.0 0.0
29/09:00am 14.8 9.8 9.6 71 2.7 ESE 26 35 14 19 1021.6 1021.0 -
29/08:30am 13.7 9.9 9.9 78 2.0 SE 20 32 11 17 1021.4 1020.7 -
29/08:00am 12.1 8.5 9.8 86 1.2 SE 19 24 10 13 1021.1 1020.4 -
29/07:30am 10.6 7.6 9.2 91 0.7 SE 15 20 8 11 1020.9 1020.2 -
29/07:00am 9.3 6.4 8.2 93 0.5 SE 13 17 7 9 1020.6 1019.9 -
29/06:30am 9.2 5.9 8.1 93 0.5 SE 15 19 8 10 1020.2 1019.5 -

Other Formats:

Comma delimited format used in spreadsheet applications
http://www.bom.gov.au/fwo/IDV60801/IDV60801.94829.axf

JavaScript Object Notation format (JSON) in row-major order
http://www.bom.gov.au/fwo/IDV60801/IDV60801.94829.json